Nearby METAR Reports

 

ESTA - Ängelholm, Sweden
Distance from station: SSV 17km
Uppdaterad: 05/02/2023 18:50
Light snow grains, Övervägande molnigt
Light snow grains, Övervägande molnigt
 Vind från SO
Vind: SO 6 km/h
Temperatur: 0°C
Daggpunkt: 0°C
Luftfuktighet: 100%
Barometer: 1036 hPa
Summering: Light Snow Grains
Clouds: Övervägande molnigt
Visibility: 6 km
Cloud details: Delvis molnigt 122 m
Övervägande molnigt 305 m
2023/02/05 17:50 ESTA 051750Z 13003KT 6000 -SG SCT004 BKN010 00/M00 Q1036
ESMT - Halmstad, Sweden
Distance from station: N 26km
Uppdaterad: 05/02/2023 18:50
Genommulet
Genommulet
 Vind från varies
Vind: varies 4 km/h
Temperatur: 0°C
Daggpunkt: 0°C
Luftfuktighet: 100%
Barometer: 1036 hPa
Clouds: Genommulet
Visibility: 7 km
Cloud details: Genommulet 152 m
2023/02/05 17:50 ESMT 051750Z VRB02KT 7000 OVC005 00/M00 Q1036
 
EKCH - Copenhagen/Kastrup, Denmark
Distance from station: S 92km
Uppdaterad: 05/02/2023 18:50
Genommulet
Genommulet
 Vind från SSV
Vind: SSV 11 km/h
Temperatur: 1°C
Wind Chill: -2°C
Daggpunkt: 0°C
Luftfuktighet: 93%
Barometer: 1036 hPa
Clouds: Genommulet
Visibility: 10 km
Cloud details: Genommulet 274 m
2023/02/05 17:50 EKCH 051750Z 21006KT 9999 OVC009 01/M00 Q1036 NOSIG
ESMK - Kristianstad/Everöd, Sweden
Distance from station: SO 93km
Uppdaterad: 05/02/2023 18:50
Övervägande molnigt
Övervägande molnigt
 Vind från SV
Vind: SV 9 km/h
Temperatur: 1°C
Wind Chill: -2°C
Daggpunkt: -3°C
Luftfuktighet: 75%
Barometer: 1036 hPa
Clouds: Övervägande molnigt
Visibility: 10 km
Cloud details: Övervägande molnigt 884 m
2023/02/05 17:50 ESMK 051750Z 23005KT 9999 BKN029 01/M03 Q1036
 
ESMS - Malmö/Sturup, Sweden
Distance from station: SSO 104km
Uppdaterad: 05/02/2023 18:50
Övervägande molnigt
Övervägande molnigt
 Vind från SSV
Vind: SSV 11 km/h
Temperatur: 1°C
Wind Chill: -2°C
Daggpunkt: -2°C
Luftfuktighet: 81%
Barometer: 1036 hPa
Clouds: Övervägande molnigt
Visibility: 10 km
Cloud details: Övervägande molnigt 488 m
2023/02/05 17:50 ESMS 051750Z 20006KT 9999 BKN016 01/M02 Q1036
ESMX - Växjö/Kronoberg, Sweden
Distance from station: ONO 124km
Uppdaterad: 05/02/2023 18:50
Light snow, Genommulet
Light snow, Genommulet
 Vind från SV
Vind: SV 7 km/h
Temperatur: -2°C
Wind Chill: -6°C
Daggpunkt: -2°C
Luftfuktighet: 100%
Barometer: 1035 hPa
Summering: Light Snow
Clouds: Genommulet
Visibility: 2 km
Cloud details: Genommulet 366 m
2023/02/05 17:50 ESMX 051750Z 23004KT 1700 -SN VV012 M02/M02 Q1035
 
EKAH - Tirstrup, Denmark
Distance from station: V 141km
Uppdaterad: 05/02/2023 18:50
Delvis molnigt
Delvis molnigt
 Vind från NNV
Vind: NNV 11 km/h
Temperatur: 4°C
Wind Chill: 1°C
Daggpunkt: 2°C
Luftfuktighet: 87%
Barometer: 1037 hPa
Clouds: Delvis molnigt
Visibility: 10 km
Cloud details: Delvis molnigt 488 m
2023/02/05 17:50 EKAH 051750Z AUTO 34006KT 9999 SCT016/// 04/02 Q1037
ESGG - Göteborg/Landvetter, Sweden
Distance from station: NNV 142km
Uppdaterad: 05/02/2023 18:50
Freezing fog, Genommulet
Freezing fog, Genommulet
 Vind från NV
Vind: NV 7 km/h
Temperatur: -1°C
Wind Chill: -4°C
Daggpunkt: -1°C
Luftfuktighet: 100%
Barometer: 1035 hPa
Summering: Freezing Fog
Clouds: Genommulet
Visibility: 0 km
Cloud details: Genommulet 61 m
2023/02/05 17:50 ESGG 051750Z 32004KT 0400 R03/1300D R21/1700D FZFG VV002 M01/M01 Q1035
 
ESDF - Ronneby, Sweden
Distance from station: O 147km
Uppdaterad: 05/02/2023 18:50
Klart
Klart
 Vind från varies
Vind: varies 4 km/h
Temperatur: 0°C
Daggpunkt: -3°C
Luftfuktighet: 80%
Barometer: 1036 hPa
Summering: Klart
Visibility: greater than 10 km
2023/02/05 17:50 ESDF 051750Z VRB02KT CAVOK M00/M03 Q1036
ESGJ - Jönköping Airport, Sweden
Distance from station: NNO 164km
Uppdaterad: 05/02/2023 18:50
Genommulet
Genommulet
 Vind från V
Vind: V 7 km/h
Temperatur: -2°C
Wind Chill: -6°C
Daggpunkt: -2°C
Luftfuktighet: 100%
Barometer: 1034 hPa
Clouds: Genommulet
Visibility: 10 km
Cloud details: Övervägande molnigt 244 m
Genommulet 305 m
2023/02/05 17:50 ESGJ 051750Z AUTO 27004KT 9999 BKN008/// OVC010/// M02/M02 Q1034 RESHUP
 
EKOD - Odense/Beldringe, Denmark
Distance from station: VSV 193km
Uppdaterad: 05/02/2023 14:50
NOT Current
Övervägande molnigt
Övervägande molnigt
 Vind från SV
Vind: SV 13 km/h
Temperatur: 2°C
Wind Chill: -1°C
Daggpunkt: 1°C
Luftfuktighet: 93%
Barometer: 1035 hPa
Clouds: Övervägande molnigt
Visibility: 10 km
Cloud details: Övervägande molnigt 671 m
2023/02/05 13:50 EKOD 051350Z 23007KT 9999 BKN022 02/01 Q1035
EKYT - AAlborg, Denmark
Distance from station: VNV 199km
Uppdaterad: 05/02/2023 18:50
Few Clouds
Few Clouds
 Vind från VNV
Vind: VNV 7 km/h
Temperatur: 1°C
Wind Chill: -2°C
Daggpunkt: -1°C
Luftfuktighet: 87%
Barometer: 1038 hPa
Clouds: Few Clouds
Visibility: 10 km
Cloud details: Few Clouds 7315 m
2023/02/05 17:50 EKYT 051750Z AUTO 30004KT 9999 FEW240/// 01/M01 Q1038
 
ESMQ - Kalmar, Sweden
Distance from station: O 211km
Uppdaterad: 05/02/2023 18:50
Genommulet
Genommulet
 Vind från SV
Vind: SV 9 km/h
Temperatur: 0°C
Wind Chill: -3°C
Daggpunkt: -3°C
Luftfuktighet: 80%
Barometer: 1036 hPa
Clouds: Genommulet
Visibility: 10 km
Cloud details: Genommulet 1524 m
2023/02/05 17:50 ESMQ 051750Z 22005KT 9999 OVC050 M00/M03 Q1036